METAR Data
IDs: Format: Raw Decoded Include TAF

Data at: 1344 UTC 21 Aug 2019

ENOV 211250Z 27005KT 9999 SCT044 BKN057 15/06 Q1021 RMK WIND 2175FT 23011KT